Pagina principale
METAR-TAF:

METAR-TAF

Aeroporti :

Aeroporto di Stoccarda

Stoccarda, Germania

latitudine: 48-41N, longitudine: 009-13E, altezza: 396 m

Osservazione

Il bollettino è stato emesso 20 minuti fa, alle 17:50 UTC
Vento 5 kt da est/nord-est
Temperature 18°C
Umidità 49%
Pressione 1016 hPa
Visibilità 10 km o più
nessuna nube inferiore a 1500 m e nessun cumulonembo

METAR: EDDS 131750Z AUTO 06005KT CAVOK 18/07 Q1016 NOSIG

Ora: 20:10 (18:10 UTC)

Previsione

Il bollettino è stato emesso 1 ora e 10 minuti fa, alle 17:00 UTC
Previsione valida dal 13 alle 18 UTC al 14 alle 18 UTC
Vento 3 kt da direzioni variabili
Visibilità 10 km o più
nessuna nube inferiore a 1500 m e nessun cumulonembo
Evoluzione graduale
dal 14 alle 08 UTC al 14 alle 11 UTC
Vento 7 kt da sud/sud-ovest

TAF: EDDS 131700Z 1318/1418 VRB03KT CAVOK BECMG 1408/1411 20007KT

Osservazioni e previsioni meteorologiche di più di 4000 aeroporti (messaggi METAR e TAF).

Le stazioni disponibili sono rappresentate dai dischi gialli e rossi sulla carta.

Puntare il mouse per vedere il nome della stazione.

Clicca sopra per visualizzare le osservazioni e previsioni meteorologiche.

Per cambiare la mappa : fare clic sui pulsanti verdi con una croce nera per ingrandire, il pulsante verde con un trattino per diminuire, o sulla freccia verde per le mappe adiacenti.


METAR-TAF: